Time;durP1;ratioP1;P1;durP2;ratioP2;P2;SDS_P1;SDS_P2;PMS_P1;PMS_P2;Temp;Humidity;BMP_temperature;BMP_pressure;BME280_temperature;BME280_humidity;BME280_pressure;Samples;Min_cycle;Max_cycle;Signal;HPM_P1;HPM_P2
2023/01/07 00:00:26;;;;;;;7.77;5.50;;;;;;;;;;5022095;28;20581;-78
2023/01/07 00:03:18;;;;;;;8.37;6.00;;;;;;;;;;5031457;28;20461;-77
2023/01/07 00:06:08;;;;;;;7.23;6.20;;;;;;;;;;5034504;28;20553;-77
2023/01/07 00:08:59;;;;;;;8.00;6.37;;;;;;;;;;5023235;28;20453;-77
2023/01/07 00:11:49;;;;;;;7.60;6.43;;;;;;;;;;5023308;28;20499;-78
2023/01/07 00:14:40;;;;;;;8.10;6.50;;;;;;;;;;5026180;28;20464;-77
2023/01/07 00:17:28;;;;;;;12.10;5.77;;;;;;;;;;5026854;28;20863;-77
2023/01/07 00:20:23;;;;;;;8.57;6.20;;;;;;;;;;5019238;28;21000;-76
2023/01/07 00:23:11;;;;;;;8.33;6.40;;;;;;;;;;5021242;28;20455;-77
2023/01/07 00:26:03;;;;;;;12.40;7.23;;;;;;;;;;5023562;28;21074;-76
2023/01/07 00:28:54;;;;;;;9.60;6.00;;;;;;;;;;5026152;28;20461;-77
2023/01/07 00:31:52;;;;;;;9.33;6.37;;;;;;;;;;5026458;28;20558;-77
2023/01/07 00:34:43;;;;;;;9.73;6.50;;;;;;;;;;5011573;28;20526;-77
2023/01/07 00:37:49;;;;;;;8.40;6.60;;;;;;;;;;5015622;28;21906;-77
2023/01/07 00:40:38;;;;;;;12.03;7.40;;;;;;;;;;5025922;28;20609;-77
2023/01/07 00:43:31;;;;;;;8.87;6.97;;;;;;;;;;5016874;28;20815;-76
2023/01/07 00:46:20;;;;;;;9.67;7.00;;;;;;;;;;4999429;28;20501;-77
2023/01/07 00:49:09;;;;;;;10.70;8.23;;;;;;;;;;5005821;28;21556;-78
2023/01/07 00:52:02;;;;;;;9.03;7.53;;;;;;;;;;5014118;28;20473;-79
2023/01/07 00:54:54;;;;;;;8.90;6.97;;;;;;;;;;5026534;28;20629;-77
2023/01/07 00:57:45;;;;;;;10.47;7.20;;;;;;;;;;5022104;28;20479;-79
2023/01/07 01:00:37;;;;;;;9.07;7.77;;;;;;;;;;5029709;28;21124;-78
2023/01/07 01:03:26;;;;;;;11.43;7.43;;;;;;;;;;5025948;28;20468;-78
2023/01/07 01:06:18;;;;;;;11.67;7.97;;;;;;;;;;5027467;28;20499;-77
2023/01/07 01:09:08;;;;;;;11.07;7.93;;;;;;;;;;5012493;28;20468;-77
2023/01/07 01:11:58;;;;;;;9.90;7.47;;;;;;;;;;5026114;28;21119;-77
2023/01/07 01:14:46;;;;;;;8.50;7.37;;;;;;;;;;5026475;28;20510;-76
2023/01/07 01:17:38;;;;;;;10.97;8.27;;;;;;;;;;5020309;28;20486;-77
2023/01/07 01:20:32;;;;;;;11.07;7.97;;;;;;;;;;5022535;28;20476;-78
2023/01/07 01:23:23;;;;;;;12.20;9.90;;;;;;;;;;5023137;28;20463;-76
2023/01/07 01:26:14;;;;;;;9.40;7.37;;;;;;;;;;4998795;28;20485;-78
2023/01/07 01:29:07;;;;;;;10.60;8.27;;;;;;;;;;5022922;28;20459;-78
2023/01/07 01:31:58;;;;;;;9.10;7.70;;;;;;;;;;5022188;28;21225;-76
2023/01/07 01:34:49;;;;;;;10.00;7.87;;;;;;;;;;5022398;28;20487;-78
2023/01/07 01:37:43;;;;;;;10.93;8.50;;;;;;;;;;5004171;28;20522;-77
2023/01/07 01:40:35;;;;;;;10.83;8.93;;;;;;;;;;5001234;28;20533;-77
2023/01/07 01:43:32;;;;;;;13.30;8.53;;;;;;;;;;5000720;28;20527;-75
2023/01/07 01:46:25;;;;;;;14.30;9.50;;;;;;;;;;5003610;28;20534;-76
2023/01/07 01:49:23;;;;;;;12.73;9.30;;;;;;;;;;5004403;28;20464;-77
2023/01/07 01:52:19;;;;;;;9.50;7.90;;;;;;;;;;5005989;28;20948;-77
2023/01/07 01:55:08;;;;;;;13.83;10.27;;;;;;;;;;4992885;28;20637;-77
2023/01/07 01:58:04;;;;;;;12.83;9.40;;;;;;;;;;5012513;28;20484;-77
2023/01/07 02:00:54;;;;;;;11.83;8.87;;;;;;;;;;5009363;28;20584;-77
2023/01/07 02:03:45;;;;;;;11.90;9.20;;;;;;;;;;5015579;28;20610;-76
2023/01/07 02:06:39;;;;;;;14.00;9.60;;;;;;;;;;5018379;28;20483;-77
2023/01/07 02:09:36;;;;;;;13.03;10.00;;;;;;;;;;5024714;28;20460;-77
2023/01/07 02:12:28;;;;;;;11.77;9.80;;;;;;;;;;5024225;28;20550;-77
2023/01/07 02:15:26;;;;;;;14.87;11.33;;;;;;;;;;5021296;28;21018;-77
2023/01/07 02:18:22;;;;;;;15.17;10.20;;;;;;;;;;5027534;28;20693;-76
2023/01/07 02:21:30;;;;;;;13.53;10.80;;;;;;;;;;5020835;28;20554;-77
2023/01/07 02:24:40;;;;;;;16.17;12.00;;;;;;;;;;5027686;28;20452;-77
2023/01/07 02:27:44;;;;;;;16.40;11.53;;;;;;;;;;5027345;28;20458;-79
2023/01/07 02:30:43;;;;;;;18.50;13.27;;;;;;;;;;5029869;28;20470;-77
2023/01/07 02:33:40;;;;;;;18.50;13.70;;;;;;;;;;5020854;28;20455;-77
2023/01/07 02:36:38;;;;;;;17.43;13.73;;;;;;;;;;5020128;28;20476;-78
2023/01/07 02:39:34;;;;;;;17.83;12.80;;;;;;;;;;5001808;28;20485;-76
2023/01/07 02:42:31;;;;;;;18.53;13.67;;;;;;;;;;5003845;28;21032;-77
2023/01/07 02:45:27;;;;;;;18.33;13.27;;;;;;;;;;5010382;28;20503;-77
2023/01/07 02:48:35;;;;;;;17.80;12.47;;;;;;;;;;5012792;28;21003;-76
2023/01/07 02:51:34;;;;;;;18.50;13.93;;;;;;;;;;5011530;28;20506;-76
2023/01/07 02:54:24;;;;;;;19.07;14.10;;;;;;;;;;5009298;28;20475;-78
2023/01/07 02:57:23;;;;;;;19.30;13.90;;;;;;;;;;5007099;28;20558;-77
2023/01/07 03:00:28;;;;;;;18.40;14.37;;;;;;;;;;5015918;28;21006;-77
2023/01/07 03:03:34;;;;;;;17.50;14.37;;;;;;;;;;5025948;28;20474;-77
2023/01/07 03:06:43;;;;;;;18.70;14.10;;;;;;;;;;5020114;28;20479;-76
2023/01/07 03:09:37;;;;;;;20.87;14.60;;;;;;;;;;5006503;28;20452;-76
2023/01/07 03:12:29;;;;;;;21.40;15.13;;;;;;;;;;5007275;28;20459;-77
2023/01/07 03:15:26;;;;;;;19.47;14.83;;;;;;;;;;5014444;28;20562;-76
2023/01/07 03:18:25;;;;;;;20.10;15.10;;;;;;;;;;5008801;28;20471;-76
2023/01/07 03:21:15;;;;;;;19.80;14.57;;;;;;;;;;5007138;28;20464;-75
2023/01/07 03:24:06;;;;;;;20.17;13.73;;;;;;;;;;5000718;28;20456;-78
2023/01/07 03:27:06;;;;;;;21.97;15.53;;;;;;;;;;5015541;28;20594;-78
2023/01/07 03:29:55;;;;;;;19.63;15.10;;;;;;;;;;5013191;28;20488;-76
2023/01/07 03:32:48;;;;;;;20.87;15.97;;;;;;;;;;5009534;28;20457;-76
2023/01/07 03:35:41;;;;;;;23.63;17.47;;;;;;;;;;5021028;28;20483;-76
2023/01/07 03:38:37;;;;;;;20.80;15.10;;;;;;;;;;5005282;28;20484;-76
2023/01/07 03:44:39;;;;;;;20.50;14.73;;;;;;;;;;5003198;28;20518;-77
2023/01/07 03:47:28;;;;;;;21.00;16.30;;;;;;;;;;4995207;28;21056;-76
2023/01/07 03:50:28;;;;;;;22.00;16.03;;;;;;;;;;5020091;28;20499;-77
2023/01/07 03:53:20;;;;;;;21.70;15.97;;;;;;;;;;5024352;28;20460;-77
2023/01/07 03:56:08;;;;;;;20.63;15.30;;;;;;;;;;5017214;28;20472;-76
2023/01/07 03:59:01;;;;;;;24.10;16.13;;;;;;;;;;5025063;28;20467;-77
2023/01/07 04:01:52;;;;;;;23.27;16.53;;;;;;;;;;5022742;28;20480;-77
2023/01/07 04:04:52;;;;;;;19.30;14.30;;;;;;;;;;5021633;28;20472;-77
2023/01/07 04:07:41;;;;;;;21.13;15.40;;;;;;;;;;5020820;28;20451;-77
2023/01/07 04:10:39;;;;;;;;;;;;;;;;;;;;;
2023/01/07 04:13:32;;;;;;;19.50;14.67;;;;;;;;;;5022162;28;20564;-76
2023/01/07 04:16:24;;;;;;;21.50;15.57;;;;;;;;;;5017885;28;20476;-76
2023/01/07 04:19:13;;;;;;;22.80;16.63;;;;;;;;;;5021359;28;20475;-77
2023/01/07 04:22:04;;;;;;;20.67;15.80;;;;;;;;;;5022769;28;20479;-77
2023/01/07 04:24:52;;;;;;;20.47;14.63;;;;;;;;;;5019006;28;21374;-76
2023/01/07 04:27:43;;;;;;;18.80;15.07;;;;;;;;;;5020889;28;20532;-76
2023/01/07 04:30:34;;;;;;;22.13;16.07;;;;;;;;;;5020578;28;20967;-77
2023/01/07 04:33:24;;;;;;;21.90;16.17;;;;;;;;;;5019669;28;21085;-77
2023/01/07 04:36:16;;;;;;;23.27;16.27;;;;;;;;;;5018854;28;20475;-76
2023/01/07 04:39:07;;;;;;;23.40;17.57;;;;;;;;;;5016935;28;20484;-77
2023/01/07 04:41:57;;;;;;;20.80;16.73;;;;;;;;;;5004173;28;20476;-76
2023/01/07 04:44:46;;;;;;;21.43;16.87;;;;;;;;;;5017506;28;20485;-76
2023/01/07 04:47:35;;;;;;;20.17;15.83;;;;;;;;;;5005978;28;20674;-76
2023/01/07 04:50:29;;;;;;;22.17;16.90;;;;;;;;;;5010531;28;20518;-78
2023/01/07 04:53:17;;;;;;;20.27;16.50;;;;;;;;;;5018877;28;20539;-78
2023/01/07 04:56:09;;;;;;;22.97;16.80;;;;;;;;;;5011145;28;20492;-77
2023/01/07 04:59:00;;;;;;;24.60;17.80;;;;;;;;;;5018123;28;20483;-77
2023/01/07 05:01:48;;;;;;;24.97;17.33;;;;;;;;;;5024554;28;20488;-77
2023/01/07 05:04:37;;;;;;;21.13;17.10;;;;;;;;;;5020016;28;20491;-77
2023/01/07 05:07:31;;;;;;;23.13;17.30;;;;;;;;;;5021977;28;20453;-77
2023/01/07 05:10:24;;;;;;;19.53;16.00;;;;;;;;;;5020018;28;20472;-76
2023/01/07 05:13:15;;;;;;;24.80;16.30;;;;;;;;;;5021176;28;20453;-78
2023/01/07 05:16:06;;;;;;;22.30;17.10;;;;;;;;;;5018571;28;21121;-76
2023/01/07 05:18:59;;;;;;;23.80;17.50;;;;;;;;;;5016082;28;20574;-77
2023/01/07 05:21:54;;;;;;;20.70;16.73;;;;;;;;;;5022284;28;20555;-76
2023/01/07 05:24:44;;;;;;;23.63;16.60;;;;;;;;;;5008441;28;20491;-76
2023/01/07 05:27:34;;;;;;;23.03;17.33;;;;;;;;;;5018781;28;20449;-77
2023/01/07 05:30:27;;;;;;;20.77;16.73;;;;;;;;;;5017104;28;20926;-76
2023/01/07 05:33:19;;;;;;;22.30;16.83;;;;;;;;;;5019699;28;20526;-77
2023/01/07 05:36:11;;;;;;;20.87;17.07;;;;;;;;;;5014996;28;20507;-76
2023/01/07 09:45:02;;;;;;;11.70;10.50;;;;;;;;;;5694056;23;20509;-74
2023/01/07 09:47:53;;;;;;;11.27;10.00;;;;;;;;;;4929333;28;21001;-74
2023/01/07 09:50:47;;;;;;;10.77;9.57;;;;;;;;;;4940608;28;20451;-73
2023/01/07 09:53:38;;;;;;;9.40;8.50;;;;;;;;;;4938917;28;20829;-74
2023/01/07 09:56:28;;;;;;;8.87;7.97;;;;;;;;;;4915589;28;20586;-72
2023/01/07 09:59:18;;;;;;;8.87;8.07;;;;;;;;;;4920083;28;21275;-72
2023/01/07 10:02:17;;;;;;;6.93;6.30;;;;;;;;;;4919189;28;20687;-72
2023/01/07 10:05:16;;;;;;;7.53;6.70;;;;;;;;;;4917189;28;20483;-72
2023/01/07 10:08:09;;;;;;;6.50;5.90;;;;;;;;;;4917135;28;20471;-70
2023/01/07 10:11:24;;;;;;;6.43;5.87;;;;;;;;;;4924230;28;20876;-70
2023/01/07 10:14:24;;;;;;;5.30;4.70;;;;;;;;;;4910002;28;20562;-72
2023/01/07 10:17:20;;;;;;;4.90;4.50;;;;;;;;;;4914399;28;20513;-70
2023/01/07 10:20:15;;;;;;;5.37;4.87;;;;;;;;;;4913352;28;20484;-70
2023/01/07 10:23:05;;;;;;;4.40;4.10;;;;;;;;;;4910753;28;20456;-71
2023/01/07 10:25:54;;;;;;;4.23;3.90;;;;;;;;;;4921499;28;20554;-74
2023/01/07 10:28:45;;;;;;;4.33;3.93;;;;;;;;;;4918119;28;20610;-72
2023/01/07 10:31:34;;;;;;;4.10;3.80;;;;;;;;;;4926699;28;20468;-74
2023/01/07 10:34:30;;;;;;;3.50;3.20;;;;;;;;;;4924832;28;20483;-72
2023/01/07 10:37:25;;;;;;;3.50;3.20;;;;;;;;;;4925892;28;20560;-74
2023/01/07 10:40:22;;;;;;;3.43;3.00;;;;;;;;;;4923956;28;20483;-73
2023/01/07 10:43:18;;;;;;;3.63;3.33;;;;;;;;;;4928314;28;20467;-73
2023/01/07 10:46:17;;;;;;;3.10;2.90;;;;;;;;;;4915976;28;22543;-73
2023/01/07 10:49:31;;;;;;;2.70;2.53;;;;;;;;;;4921664;28;20848;-73
2023/01/07 10:52:30;;;;;;;3.60;2.93;;;;;;;;;;4930435;28;20594;-72
2023/01/07 10:55:27;;;;;;;2.80;2.60;;;;;;;;;;4925503;28;20499;-74
2023/01/07 10:58:18;;;;;;;3.00;2.80;;;;;;;;;;4928646;28;20517;-78
2023/01/07 11:01:07;;;;;;;3.53;2.80;;;;;;;;;;4927851;28;20516;-77
2023/01/07 11:03:57;;;;;;;2.77;2.57;;;;;;;;;;4928076;28;20662;-76
2023/01/07 11:06:48;;;;;;;2.93;2.73;;;;;;;;;;4927054;28;21220;-75
2023/01/07 11:09:40;;;;;;;2.30;2.20;;;;;;;;;;4922443;28;20882;-74
2023/01/07 11:12:41;;;;;;;2.50;2.30;;;;;;;;;;4924370;28;20459;-74
2023/01/07 11:15:34;;;;;;;2.50;2.30;;;;;;;;;;4919750;28;20493;-75
2023/01/07 11:18:25;;;;;;;2.50;2.30;;;;;;;;;;4926213;28;20464;-74
2023/01/07 11:21:31;;;;;;;2.63;2.43;;;;;;;;;;4927974;28;20999;-75
2023/01/07 11:24:35;;;;;;;3.00;2.70;;;;;;;;;;4923350;28;20467;-76
2023/01/07 11:27:26;;;;;;;2.47;2.27;;;;;;;;;;4926636;28;20482;-74
2023/01/07 11:30:24;;;;;;;3.20;2.43;;;;;;;;;;4928294;28;20972;-75
2023/01/07 11:33:20;;;;;;;2.17;1.97;;;;;;;;;;4931455;28;20456;-75
2023/01/07 11:36:09;;;;;;;2.43;2.23;;;;;;;;;;4924254;28;20545;-76
2023/01/07 11:39:09;;;;;;;2.20;2.10;;;;;;;;;;4919653;28;21850;-77
2023/01/07 11:41:58;;;;;;;1.90;1.80;;;;;;;;;;4901211;28;21043;-77
2023/01/07 11:44:48;;;;;;;2.23;2.13;;;;;;;;;;4922711;28;20545;-78
2023/01/07 11:47:38;;;;;;;2.03;1.87;;;;;;;;;;4912855;28;20460;-74
2023/01/07 11:50:33;;;;;;;2.10;2.00;;;;;;;;;;4910361;28;20547;-76
2023/01/07 11:53:31;;;;;;;1.90;1.80;;;;;;;;;;4914654;28;20560;-74
2023/01/07 11:56:23;;;;;;;1.80;1.70;;;;;;;;;;4906816;28;20488;-75
2023/01/07 11:59:22;;;;;;;2.60;2.40;;;;;;;;;;4923154;28;20552;-76
2023/01/07 12:02:25;;;;;;;2.10;1.90;;;;;;;;;;4927532;28;20468;-75
2023/01/07 12:05:18;;;;;;;2.00;1.90;;;;;;;;;;4938235;28;20490;-75
2023/01/07 12:08:07;;;;;;;2.17;1.97;;;;;;;;;;4924092;28;20486;-76
2023/01/07 12:10:57;;;;;;;2.23;2.03;;;;;;;;;;4926032;28;20503;-76
2023/01/07 12:13:48;;;;;;;1.70;1.60;;;;;;;;;;4932694;28;20460;-75
2023/01/07 12:16:37;;;;;;;2.87;1.83;;;;;;;;;;4941099;28;21064;-75
2023/01/07 12:19:33;;;;;;;1.63;1.53;;;;;;;;;;4943225;28;20458;-74
2023/01/07 12:22:27;;;;;;;2.10;1.50;;;;;;;;;;4934900;28;20470;-75
2023/01/07 12:25:30;;;;;;;2.00;1.73;;;;;;;;;;4937053;28;20493;-75
2023/01/07 12:28:33;;;;;;;1.80;1.70;;;;;;;;;;4941096;28;20957;-75
2023/01/07 12:31:28;;;;;;;1.57;1.47;;;;;;;;;;4942556;28;20629;-75
2023/01/07 12:34:22;;;;;;;2.10;1.90;;;;;;;;;;4940438;28;20483;-75
2023/01/07 12:37:14;;;;;;;1.50;1.40;;;;;;;;;;4939892;28;20444;-75
2023/01/07 12:40:07;;;;;;;1.80;1.70;;;;;;;;;;4942287;28;21132;-76
2023/01/07 12:43:01;;;;;;;1.80;1.70;;;;;;;;;;4933390;28;20482;-75
2023/01/07 12:45:53;;;;;;;2.27;1.90;;;;;;;;;;4927303;28;20491;-76
2023/01/07 12:48:43;;;;;;;1.80;1.70;;;;;;;;;;4932517;28;20448;-75
2023/01/07 12:51:35;;;;;;;2.10;1.70;;;;;;;;;;4936671;28;20463;-75
2023/01/07 12:54:29;;;;;;;1.83;1.63;;;;;;;;;;4940314;28;20461;-76
2023/01/07 12:57:19;;;;;;;2.10;1.90;;;;;;;;;;4937740;28;20465;-75
2023/01/07 13:00:14;;;;;;;1.90;1.80;;;;;;;;;;4934450;28;20459;-75
2023/01/07 13:03:09;;;;;;;2.10;2.00;;;;;;;;;;4937396;28;20462;-75
2023/01/07 13:06:00;;;;;;;2.13;1.93;;;;;;;;;;4934952;28;20480;-73
2023/01/07 13:08:56;;;;;;;2.83;1.77;;;;;;;;;;4937774;28;20993;-75
2023/01/07 13:15:25;;;;;;;1.97;1.87;;;;;;;;;;4940268;28;20515;-74
2023/01/07 13:18:16;;;;;;;1.73;1.63;;;;;;;;;;4931876;28;22585;-74
2023/01/07 13:21:09;;;;;;;2.17;2.03;;;;;;;;;;4934588;28;20651;-75
2023/01/07 13:24:06;;;;;;;2.50;2.13;;;;;;;;;;4935905;28;20833;-75
2023/01/07 13:27:00;;;;;;;1.73;1.63;;;;;;;;;;4935659;28;20986;-75
2023/01/07 13:29:57;;;;;;;2.10;1.90;;;;;;;;;;4917577;28;21188;-74
2023/01/07 13:32:59;;;;;;;2.50;2.30;;;;;;;;;;4916766;28;20503;-74
2023/01/07 13:35:59;;;;;;;2.33;2.13;;;;;;;;;;4904099;28;20511;-74
2023/01/07 13:39:00;;;;;;;2.47;2.27;;;;;;;;;;4913929;28;20460;-73
2023/01/07 13:42:02;;;;;;;2.60;2.40;;;;;;;;;;4924153;28;20622;-72
2023/01/07 13:44:57;;;;;;;2.30;2.13;;;;;;;;;;4914299;28;23813;-74
2023/01/07 13:47:47;;;;;;;2.57;2.37;;;;;;;;;;4919101;28;20546;-73
2023/01/07 13:50:38;;;;;;;2.60;2.40;;;;;;;;;;4921950;28;20452;-73
2023/01/07 13:53:31;;;;;;;2.23;2.03;;;;;;;;;;4913236;28;20459;-73
2023/01/07 13:56:38;;;;;;;2.07;1.63;;;;;;;;;;4919970;28;20498;-73
2023/01/07 13:59:30;;;;;;;2.40;2.20;;;;;;;;;;4919747;28;21232;-75
2023/01/07 14:02:20;;;;;;;2.40;2.20;;;;;;;;;;4907377;28;20581;-79
2023/01/07 14:05:25;;;;;;;2.57;2.20;;;;;;;;;;4915339;28;20550;-78
2023/01/07 14:08:16;;;;;;;2.50;2.30;;;;;;;;;;4932045;28;20595;-78
2023/01/07 14:11:05;;;;;;;2.20;2.10;;;;;;;;;;4926577;28;20933;-78
2023/01/07 14:14:00;;;;;;;2.47;2.03;;;;;;;;;;4913807;28;20554;-77
2023/01/07 14:16:53;;;;;;;2.50;2.30;;;;;;;;;;4920168;28;20863;-77
2023/01/07 14:19:49;;;;;;;3.10;2.90;;;;;;;;;;4929810;28;20984;-78
2023/01/07 14:22:42;;;;;;;3.23;2.80;;;;;;;;;;4925900;28;20480;-78
2023/01/07 14:25:49;;;;;;;2.70;2.50;;;;;;;;;;4930777;28;20475;-77
2023/01/07 14:28:56;;;;;;;7.57;5.80;;;;;;;;;;4931349;28;20873;-76
2023/01/07 14:31:46;;;;;;;2.57;2.37;;;;;;;;;;4922452;28;20838;-76
2023/01/07 14:34:36;;;;;;;2.63;2.43;;;;;;;;;;4930298;28;20486;-77
2023/01/07 14:37:33;;;;;;;2.70;2.50;;;;;;;;;;4920104;28;21855;-79
2023/01/07 14:40:40;;;;;;;3.03;2.63;;;;;;;;;;4917879;28;20466;-77
2023/01/07 14:44:01;;;;;;;3.10;2.90;;;;;;;;;;4919329;28;20458;-78
2023/01/07 14:46:50;;;;;;;2.90;2.70;;;;;;;;;;4915168;28;20495;-80
2023/01/07 14:49:50;;;;;;;3.30;3.00;;;;;;;;;;4919787;28;21407;-77
2023/01/07 14:52:43;;;;;;;3.57;2.60;;;;;;;;;;4920340;28;20454;-73
2023/01/07 14:55:35;;;;;;;2.80;2.50;;;;;;;;;;4924400;28;20571;-74
2023/01/07 14:58:34;;;;;;;2.67;2.47;;;;;;;;;;4916041;28;20547;-74
2023/01/07 15:01:30;;;;;;;3.40;2.77;;;;;;;;;;4915292;28;20570;-74
2023/01/07 15:04:27;;;;;;;2.80;2.50;;;;;;;;;;4920750;28;20562;-74
2023/01/07 15:07:24;;;;;;;2.47;2.27;;;;;;;;;;4922895;28;20460;-76
2023/01/07 15:16:31;;;;;;;2.30;2.10;;;;;;;;;;4924168;28;21694;-70
2023/01/07 15:19:21;;;;;;;1.97;1.87;;;;;;;;;;4945593;28;20448;-72
2023/01/07 15:22:18;;;;;;;4.13;2.47;;;;;;;;;;4928202;28;20519;-72
2023/01/07 15:25:14;;;;;;;2.90;1.80;;;;;;;;;;4923421;28;20589;-72
2023/01/07 15:28:07;;;;;;;2.97;2.70;;;;;;;;;;4926261;28;20459;-71
2023/01/07 15:31:02;;;;;;;1.90;1.80;;;;;;;;;;4916352;28;20468;-73
2023/01/07 15:33:56;;;;;;;2.23;2.13;;;;;;;;;;4923640;28;20951;-72
2023/01/07 15:36:47;;;;;;;2.60;2.40;;;;;;;;;;4923845;28;20484;-72
2023/01/07 15:39:39;;;;;;;2.50;2.30;;;;;;;;;;4947800;28;20457;-74
2023/01/07 15:42:31;;;;;;;2.60;2.40;;;;;;;;;;4920879;28;20481;-71
2023/01/07 15:45:21;;;;;;;2.73;2.53;;;;;;;;;;4901132;28;20491;-73
2023/01/07 15:48:12;;;;;;;2.40;1.80;;;;;;;;;;4921239;28;20468;-73
2023/01/07 15:51:02;;;;;;;2.40;2.20;;;;;;;;;;4905976;28;20547;-72
2023/01/07 15:53:57;;;;;;;2.70;2.10;;;;;;;;;;4902394;28;21272;-72
2023/01/07 15:56:52;;;;;;;2.17;1.97;;;;;;;;;;4903114;28;20494;-74
2023/01/07 15:59:46;;;;;;;2.10;2.00;;;;;;;;;;4903270;28;20456;-72
2023/01/07 16:02:38;;;;;;;2.67;2.10;;;;;;;;;;4903126;28;20522;-72
2023/01/07 16:05:27;;;;;;;2.43;2.30;;;;;;;;;;4891542;28;20587;-75
2023/01/07 16:08:19;;;;;;;2.73;2.20;;;;;;;;;;4901791;28;20494;-72
2023/01/07 16:11:09;;;;;;;2.33;2.13;;;;;;;;;;4903342;28;20467;-73
2023/01/07 16:13:58;;;;;;;2.83;2.57;;;;;;;;;;4895490;28;24655;-72
2023/01/07 16:16:49;;;;;;;2.37;2.17;;;;;;;;;;4907581;28;20456;-73
2023/01/07 16:19:39;;;;;;;2.23;2.13;;;;;;;;;;4907765;28;20471;-74
2023/01/07 16:22:28;;;;;;;2.40;2.20;;;;;;;;;;4899913;28;21113;-74
2023/01/07 16:25:20;;;;;;;2.47;2.27;;;;;;;;;;4902021;28;20914;-74
2023/01/07 16:28:15;;;;;;;2.50;2.27;;;;;;;;;;4917704;28;20457;-74
2023/01/07 16:31:04;;;;;;;2.43;2.23;;;;;;;;;;4914086;28;20494;-73
2023/01/07 16:33:58;;;;;;;3.00;2.70;;;;;;;;;;4909348;28;21389;-74
2023/01/07 16:36:50;;;;;;;2.70;2.50;;;;;;;;;;4892012;28;20491;-73
2023/01/07 16:39:40;;;;;;;2.20;2.00;;;;;;;;;;4917739;28;20464;-73
2023/01/07 16:42:29;;;;;;;2.30;2.10;;;;;;;;;;4925851;28;20480;-74
2023/01/07 16:45:26;;;;;;;2.07;1.97;;;;;;;;;;4904148;28;20798;-73
2023/01/07 16:48:17;;;;;;;2.77;2.43;;;;;;;;;;4916279;28;20467;-74
2023/01/07 16:51:33;;;;;;;2.40;2.20;;;;;;;;;;4910848;28;20540;-73
2023/01/07 16:54:30;;;;;;;2.30;2.20;;;;;;;;;;4919079;28;20495;-74
2023/01/07 16:57:26;;;;;;;1.93;1.83;;;;;;;;;;4911343;28;20558;-73
2023/01/07 17:00:17;;;;;;;2.33;2.20;;;;;;;;;;4896150;28;20456;-75
2023/01/07 17:03:12;;;;;;;2.73;2.53;;;;;;;;;;4899096;28;20483;-76
2023/01/07 17:06:06;;;;;;;2.87;2.63;;;;;;;;;;4906625;28;20495;-74
2023/01/07 17:08:57;;;;;;;2.50;2.20;;;;;;;;;;4903383;28;20499;-73
2023/01/07 17:11:49;;;;;;;2.60;2.40;;;;;;;;;;4914740;28;20460;-75
2023/01/07 17:14:49;;;;;;;2.50;2.33;;;;;;;;;;4895852;28;20528;-76
2023/01/07 17:17:38;;;;;;;3.23;2.10;;;;;;;;;;4909496;28;20459;-77
2023/01/07 17:20:28;;;;;;;2.50;2.30;;;;;;;;;;4894859;28;20473;-75
2023/01/07 17:23:32;;;;;;;2.00;1.90;;;;;;;;;;4904672;28;20490;-78
2023/01/07 17:26:24;;;;;;;2.23;2.00;;;;;;;;;;4904152;28;20491;-78
2023/01/07 17:29:14;;;;;;;2.20;2.00;;;;;;;;;;4917645;28;23690;-78
2023/01/07 17:32:03;;;;;;;2.27;1.90;;;;;;;;;;4902126;28;20484;-80
2023/01/07 17:34:52;;;;;;;2.10;1.90;;;;;;;;;;4908806;28;20498;-80
2023/01/07 17:37:43;;;;;;;1.97;1.67;;;;;;;;;;4899706;28;20455;-80
2023/01/07 17:40:31;;;;;;;2.93;1.80;;;;;;;;;;4919542;28;20459;-78
2023/01/07 17:43:34;;;;;;;1.77;1.67;;;;;;;;;;4918771;28;20483;-76
2023/01/07 17:46:23;;;;;;;1.70;1.60;;;;;;;;;;4923284;28;21434;-77
2023/01/07 17:49:12;;;;;;;1.80;1.70;;;;;;;;;;4931656;28;20490;-76
2023/01/07 17:52:01;;;;;;;1.80;1.70;;;;;;;;;;4924477;28;20594;-80
2023/01/07 17:54:49;;;;;;;1.90;1.80;;;;;;;;;;4932983;28;20491;-79
2023/01/07 17:57:38;;;;;;;1.70;1.60;;;;;;;;;;4933166;28;20506;-77
2023/01/07 18:00:31;;;;;;;2.50;1.73;;;;;;;;;;4920457;28;20527;-79
2023/01/07 18:03:20;;;;;;;1.90;1.77;;;;;;;;;;4921547;28;22652;-75
2023/01/07 18:06:14;;;;;;;1.97;1.87;;;;;;;;;;4926797;28;20511;-78
2023/01/07 18:09:07;;;;;;;2.13;2.03;;;;;;;;;;4926050;28;20447;-77
2023/01/07 18:18:07;;;;;;;2.90;2.60;;;;;;;;;;4922436;28;20513;-80
2023/01/07 18:20:56;;;;;;;3.00;2.80;;;;;;;;;;4939691;28;20460;-78
2023/01/07 18:23:45;;;;;;;2.20;2.00;;;;;;;;;;4918506;28;20487;-78
2023/01/07 18:26:34;;;;;;;1.93;1.70;;;;;;;;;;4918488;28;20495;-76
2023/01/07 18:29:23;;;;;;;2.13;2.00;;;;;;;;;;4921007;28;20498;-72
2023/01/07 18:32:12;;;;;;;2.30;2.10;;;;;;;;;;4923406;28;20483;-79
2023/01/07 18:35:02;;;;;;;1.77;1.67;;;;;;;;;;4938832;28;20491;-76
2023/01/07 18:37:51;;;;;;;2.13;2.03;;;;;;;;;;4917529;28;20471;-76
2023/01/07 18:40:41;;;;;;;2.37;2.17;;;;;;;;;;4925650;28;20496;-74
2023/01/07 18:43:31;;;;;;;2.40;2.20;;;;;;;;;;4920012;28;20480;-75
2023/01/07 18:46:20;;;;;;;2.40;2.20;;;;;;;;;;4925004;28;20685;-78
2023/01/07 18:49:11;;;;;;;3.23;1.93;;;;;;;;;;4927841;28;20492;-75
2023/01/07 18:52:01;;;;;;;2.67;2.13;;;;;;;;;;4932573;28;20514;-77
2023/01/07 18:54:55;;;;;;;3.17;2.57;;;;;;;;;;4925918;28;20546;-80
2023/01/07 18:57:44;;;;;;;2.60;2.40;;;;;;;;;;4924266;28;20487;-74
2023/01/07 19:00:33;;;;;;;2.77;2.30;;;;;;;;;;4924697;28;20594;-75
2023/01/07 19:03:21;;;;;;;2.33;2.13;;;;;;;;;;4924503;28;20634;-73
2023/01/07 19:06:11;;;;;;;2.97;2.67;;;;;;;;;;4930176;28;20515;-75
2023/01/07 19:09:01;;;;;;;2.43;2.23;;;;;;;;;;4939983;28;22505;-74
2023/01/07 19:11:51;;;;;;;2.57;2.33;;;;;;;;;;4927687;28;20473;-77
2023/01/07 19:14:40;;;;;;;2.70;2.50;;;;;;;;;;4931842;28;20541;-75
2023/01/07 19:17:29;;;;;;;3.43;3.13;;;;;;;;;;4930455;28;21056;-75
2023/01/07 19:20:43;;;;;;;2.83;2.63;;;;;;;;;;4918367;28;20451;-71
2023/01/07 19:23:32;;;;;;;3.07;2.83;;;;;;;;;;4922809;28;20562;-73
2023/01/07 19:26:22;;;;;;;4.20;3.80;;;;;;;;;;4898852;28;20533;-73
2023/01/07 19:29:11;;;;;;;2.83;2.60;;;;;;;;;;4914775;28;20564;-74
2023/01/07 19:32:01;;;;;;;3.93;3.63;;;;;;;;;;4909530;28;20628;-72
2023/01/07 19:34:51;;;;;;;3.00;2.80;;;;;;;;;;4902189;28;20487;-72
2023/01/07 19:37:40;;;;;;;3.20;2.90;;;;;;;;;;4922114;28;20455;-72
2023/01/07 19:40:30;;;;;;;3.63;3.40;;;;;;;;;;4928480;28;20871;-71
2023/01/07 19:43:20;;;;;;;3.30;3.03;;;;;;;;;;4928143;28;20464;-73
2023/01/07 19:46:10;;;;;;;4.10;3.80;;;;;;;;;;4931011;28;20493;-73
2023/01/07 19:48:59;;;;;;;3.03;2.63;;;;;;;;;;4932638;28;20468;-73
2023/01/07 19:51:48;;;;;;;3.43;3.13;;;;;;;;;;4927004;28;21036;-71
2023/01/07 19:54:40;;;;;;;2.97;2.73;;;;;;;;;;4927279;28;20490;-70
2023/01/07 19:57:29;;;;;;;2.90;2.70;;;;;;;;;;4930234;28;20467;-73
2023/01/07 20:00:22;;;;;;;2.40;2.30;;;;;;;;;;4931104;28;20462;-74
2023/01/07 20:03:11;;;;;;;2.90;2.70;;;;;;;;;;4916644;28;20463;-73
2023/01/07 20:06:04;;;;;;;2.83;2.60;;;;;;;;;;4921265;28;26528;-72
2023/01/07 20:08:53;;;;;;;3.50;2.63;;;;;;;;;;4931181;28;20464;-72
2023/01/07 20:11:43;;;;;;;3.00;2.80;;;;;;;;;;4927101;28;20927;-72
2023/01/07 20:14:35;;;;;;;2.83;2.63;;;;;;;;;;4923806;28;20487;-72
2023/01/07 20:17:25;;;;;;;2.60;2.40;;;;;;;;;;4932761;28;20572;-72
2023/01/07 20:20:14;;;;;;;3.00;2.70;;;;;;;;;;4924739;28;20594;-71
2023/01/07 20:23:04;;;;;;;2.97;2.67;;;;;;;;;;4929031;28;20508;-72
2023/01/07 20:25:52;;;;;;;2.83;2.63;;;;;;;;;;4929812;28;20487;-72
2023/01/07 20:28:43;;;;;;;2.70;2.50;;;;;;;;;;4924694;28;20463;-70
2023/01/07 20:31:32;;;;;;;2.10;2.00;;;;;;;;;;4924547;28;20459;-71
2023/01/07 20:34:25;;;;;;;2.10;2.00;;;;;;;;;;4920077;28;20500;-71
2023/01/07 20:37:22;;;;;;;2.30;2.13;;;;;;;;;;4931804;28;20546;-71
2023/01/07 20:40:17;;;;;;;2.20;2.00;;;;;;;;;;4922616;28;20471;-71
2023/01/07 20:43:06;;;;;;;2.50;2.30;;;;;;;;;;4941213;28;20974;-71
2023/01/07 20:46:02;;;;;;;2.37;2.27;;;;;;;;;;4941097;28;20497;-71
2023/01/07 20:48:51;;;;;;;4.33;2.30;;;;;;;;;;4944003;29;20472;-71
2023/01/07 20:51:43;;;;;;;4.70;2.30;;;;;;;;;;4941997;28;20469;-71
2023/01/07 20:54:38;;;;;;;2.30;2.20;;;;;;;;;;4944233;28;20558;-71
2023/01/07 20:57:29;;;;;;;2.17;2.00;;;;;;;;;;4941741;28;20472;-71
2023/01/07 21:00:20;;;;;;;2.33;2.13;;;;;;;;;;4943126;28;20451;-70
2023/01/07 21:03:09;;;;;;;2.20;2.00;;;;;;;;;;4943145;29;20460;-70
2023/01/07 21:05:58;;;;;;;2.50;2.30;;;;;;;;;;4940652;28;20492;-71
2023/01/07 21:08:49;;;;;;;2.57;2.37;;;;;;;;;;4943497;29;20448;-70
2023/01/07 21:11:39;;;;;;;2.40;2.20;;;;;;;;;;4943101;28;21063;-70
2023/01/07 21:14:28;;;;;;;3.50;2.90;;;;;;;;;;4941709;28;20488;-70
2023/01/07 21:17:21;;;;;;;3.17;2.93;;;;;;;;;;4942031;29;20468;-70
2023/01/07 21:20:14;;;;;;;3.20;2.90;;;;;;;;;;4940087;29;20551;-71
2023/01/07 21:23:02;;;;;;;2.60;2.40;;;;;;;;;;4940830;28;20444;-71
2023/01/07 21:25:53;;;;;;;2.40;2.20;;;;;;;;;;4942916;28;20484;-71
2023/01/07 21:28:42;;;;;;;2.33;2.13;;;;;;;;;;4940996;29;20462;-71
2023/01/07 21:31:33;;;;;;;2.70;2.40;;;;;;;;;;4940518;29;20842;-71
2023/01/07 21:34:26;;;;;;;2.63;2.13;;;;;;;;;;4938493;28;20471;-71
2023/01/07 21:37:20;;;;;;;2.63;2.37;;;;;;;;;;4939764;28;20456;-71